| time (UTC) | temp F | wind direction | speed MPH | gust MPH | rain 1hr in | rain 24hr in | rain mn in | humidity % | barometer mb |
| 20260505034500 | 50 | 118 | 0.0 | 1.0 | 0.00 | 0.00 | 0.00 | 89 | 1010.4 |
| 20260505033000 | 50 | 127 | 1.0 | 2.0 | 0.00 | 0.00 | 0.00 | 88 | 1010.4 |
| 20260505031500 | 50 | 140 | 1.0 | 1.0 | 0.00 | 0.00 | 0.00 | 87 | 1010.5 |
| 20260505030000 | 50 | 176 | 1.0 | 1.0 | 0.00 | 0.00 | 0.00 | 87 | 1010.6 |
| 20260505024500 | 50 | 148 | 1.0 | 2.0 | 0.00 | 0.00 | 0.00 | 87 | 1010.6 |
| 20260505023000 | 50 | 0 | 0.0 | 1.0 | 0.00 | 0.00 | 0.00 | 87 | 1010.7 |
| 20260505021500 | 50 | 172 | 2.0 | 3.0 | 0.00 | 0.00 | 0.00 | 86 | 1010.8 |
| 20260505020000 | 51 | 187 | 2.0 | 3.0 | 0.00 | 0.00 | 0.00 | 85 | 1010.7 |
| 20260505014500 | 51 | 213 | 1.0 | 3.0 | 0.00 | 0.00 | 0.00 | 81 | 1010.7 |
| 20260505013000 | 51 | 242 | 1.0 | 3.0 | 0.00 | 0.00 | 0.00 | 80 | 1010.5 |
| 20260505011500 | 51 | 173 | 1.0 | 6.0 | 0.00 | 0.00 | 0.00 | 81 | 1010.4 |
| 20260505010000 | 51 | 225 | 2.0 | 4.0 | 0.00 | 0.00 | 0.00 | 81 | 1010.1 |
| 20260505004500 | 52 | 217 | 1.0 | 2.0 | 0.00 | 0.00 | 0.00 | 80 | 1009.9 |
| 20260505003000 | 53 | 175 | 3.0 | 4.0 | 0.00 | 0.00 | 0.00 | 75 | 1009.6 |
| 20260505001500 | 54 | 146 | 7.0 | 3.0 | 0.00 | 0.00 | 0.00 | 74 | 1009.3 |
| 20260505000000 | 55 | 225 | 2.0 | 7.0 | 0.00 | 0.00 | 0.00 | 72 | 1009.0 |
| 20260504234500 | 55 | 189 | 8.0 | 8.0 | 0.00 | 0.00 | 0.00 | 70 | 1008.9 |
| 20260504233000 | 55 | 202 | 5.0 | 7.0 | 0.00 | 0.00 | 0.00 | 68 | 1008.8 |
| 20260504231500 | 56 | 57 | 1.0 | 5.0 | 0.00 | 0.00 | 0.00 | 67 | 1008.6 |
| 20260504230000 | 56 | 189 | 5.0 | 5.0 | 0.00 | 0.00 | 0.00 | 65 | 1008.3 |
| 20260504224500 | 56 | 257 | 4.0 | 3.0 | 0.00 | 0.00 | 0.00 | 63 | 1008.4 |
| 20260504223000 | 56 | 163 | 3.0 | 4.0 | 0.00 | 0.00 | 0.00 | 67 | 1008.3 |
| 20260504221500 | 57 | 143 | 4.0 | 7.0 | 0.00 | 0.00 | 0.00 | 63 | 1008.1 |
| 20260504220000 | 58 | 171 | 2.0 | 5.0 | 0.00 | 0.00 | 0.00 | 61 | 1008.1 |
| 20260504214500 | 59 | 182 | 2.0 | 5.0 | 0.00 | 0.00 | 0.00 | 58 | 1008.0 |
| 20260504213000 | 59 | 177 | 4.0 | 8.0 | 0.00 | 0.00 | 0.00 | 60 | 1007.9 |
| 20260504211500 | 59 | 169 | 3.0 | 7.0 | 0.00 | 0.00 | 0.00 | 61 | 1007.9 |
| 20260504210000 | 60 | 198 | 9.0 | 6.0 | 0.00 | 0.00 | 0.00 | 59 | 1007.6 |
| 20260504204500 | 61 | 181 | 0.0 | 11.0 | 0.00 | 0.00 | 0.00 | 57 | 1007.6 |
| 20260504203000 | 61 | 147 | 3.0 | 6.0 | 0.00 | 0.00 | 0.00 | 59 | 1007.5 |
| 20260504201500 | 60 | 193 | 4.0 | 8.0 | 0.00 | 0.00 | 0.00 | 58 | 1007.6 |
| 20260504200000 | 61 | 176 | 7.0 | 12.0 | 0.00 | 0.00 | 0.00 | 57 | 1007.3 |
| 20260504194500 | 64 | 150 | 3.0 | 6.0 | 0.00 | 0.00 | 0.00 | 51 | 1007.1 |
| 20260504193000 | 64 | 183 | 2.0 | 6.0 | 0.00 | 0.00 | 0.00 | 47 | 1007.0 |
| 20260504191500 | 65 | 176 | 4.0 | 4.0 | 0.00 | 0.00 | 0.00 | 46 | 1007.0 |
| 20260504190000 | 65 | 202 | 7.0 | 5.0 | 0.00 | 0.00 | 0.00 | 44 | 1007.1 |
| 20260504184500 | 66 | 165 | 8.0 | 4.0 | 0.00 | 0.00 | 0.00 | 44 | 1006.9 |
| 20260504183000 | 66 | 212 | 5.0 | 10.0 | 0.00 | 0.00 | 0.00 | 44 | 1007.3 |
| 20260504181500 | 66 | 195 | 3.0 | 8.0 | 0.00 | 0.00 | 0.00 | 44 | 1007.2 |
| 20260504180000 | 65 | 172 | 6.0 | 5.0 | 0.00 | 0.00 | 0.00 | 45 | 1007.2 |
| 20260504174500 | 65 | 182 | 1.0 | 3.0 | 0.00 | 0.00 | 0.00 | 53 | 1007.3 |
| 20260504173000 | 68 | 176 | 5.0 | 7.0 | 0.00 | 0.00 | 0.00 | 39 | 1007.0 |
| 20260504171500 | 68 | 164 | 4.0 | 7.0 | 0.00 | 0.00 | 0.00 | 37 | 1007.0 |
| 20260504081500 | 45 | 0 | 0.0 | 0.0 | 0.00 | 0.00 | 0.00 | 72 | 1009.5 |
| 20260504050000 | 43 | 0 | 0.0 | 0.0 | 0.00 | 0.00 | 0.00 | 65 | 1009.6 |
| 20260504044500 | 43 | 0 | 0.0 | 0.0 | 0.00 | 0.00 | 0.00 | 63 | 1009.7 |
| 20260504043000 | 43 | 222 | 1.0 | 0.0 | 0.00 | 0.00 | 0.00 | 62 | 1009.5 |
| 20260504041500 | 43 | 352 | 0.0 | 0.0 | 0.00 | 0.00 | 0.00 | 64 | 1009.5 |
| 20260504040000 | 42 | 0 | 0.0 | 0.0 | 0.00 | 0.00 | 0.00 | 67 | 1009.6 |